createdAt,value
2023-02-18T00:00:36.167Z,3.82
2023-02-18T00:03:09.355Z,3.80
2023-02-18T00:05:56.171Z,3.77
2023-02-18T00:08:29.282Z,3.74
2023-02-18T00:11:17.182Z,3.69
2023-02-18T00:13:50.288Z,3.69
2023-02-18T00:16:38.181Z,3.69
2023-02-18T00:19:13.340Z,3.71
2023-02-18T00:22:00.200Z,3.68
2023-02-18T00:24:40.182Z,3.68
2023-02-18T00:27:34.179Z,3.64
2023-02-18T00:30:21.205Z,3.65
2023-02-18T00:33:01.188Z,3.68
2023-02-18T00:35:55.196Z,3.66
2023-02-18T00:38:42.189Z,3.65
2023-02-18T00:41:22.212Z,3.66
2023-02-18T00:44:16.205Z,3.63
2023-02-18T00:47:03.192Z,3.61
2023-02-18T00:49:36.336Z,3.61
2023-02-18T00:52:23.186Z,3.61
2023-02-18T00:54:56.315Z,3.59
2023-02-18T00:57:43.193Z,3.60
2023-02-18T01:00:24.285Z,3.60
2023-02-18T01:03:18.204Z,3.61
2023-02-18T01:06:05.393Z,3.64
2023-02-18T01:08:38.419Z,3.64
2023-02-18T01:11:25.217Z,3.61
2023-02-18T01:13:58.309Z,3.63
2023-02-18T01:16:45.226Z,3.63
2023-02-18T01:19:25.254Z,3.71
2023-02-18T01:22:13.229Z,3.75
2023-02-18T01:24:46.551Z,3.82
2023-02-18T01:27:33.218Z,3.93
2023-02-18T01:30:06.396Z,4.04
2023-02-18T01:32:53.243Z,4.09
2023-02-18T01:35:27.383Z,4.20
2023-02-18T01:38:15.342Z,4.40
2023-02-18T01:40:56.340Z,4.51
2023-02-18T01:43:44.227Z,4.68
2023-02-18T01:46:35.326Z,4.75
2023-02-18T01:49:34.177Z,4.75
2023-02-18T01:52:25.209Z,4.67
2023-02-18T01:55:02.323Z,4.77
2023-02-18T01:57:49.219Z,4.76
2023-02-18T02:00:25.333Z,4.76
2023-02-18T02:03:19.227Z,4.72
2023-02-18T02:06:06.580Z,4.67
2023-02-18T02:08:47.238Z,4.65
2023-02-18T02:11:40.210Z,4.62
2023-02-18T02:14:30.316Z,4.59
2023-02-18T02:17:17.218Z,4.68
2023-02-18T02:20:35.336Z,4.81
2023-02-18T02:23:57.248Z,4.82
2023-02-18T02:26:52.321Z,4.91
2023-02-18T02:30:16.297Z,4.95
2023-02-18T02:33:09.233Z,4.84
2023-02-18T02:36:17.241Z,5.03
2023-02-18T02:39:12.248Z,5.03
2023-02-18T02:42:16.237Z,5.00
2023-02-18T02:45:22.378Z,4.97
2023-02-18T02:48:33.229Z,5.00
2023-02-18T02:51:39.271Z,5.12
2023-02-18T02:54:32.300Z,5.17
2023-02-18T02:57:31.405Z,5.28
2023-02-18T03:00:20.265Z,5.34
2023-02-18T03:03:03.678Z,5.36
2023-02-18T03:06:21.248Z,5.32
2023-02-18T03:09:28.249Z,5.20
2023-02-18T03:12:34.251Z,5.03
2023-02-18T03:15:27.251Z,5.03
2023-02-18T03:18:13.366Z,5.03
2023-02-18T03:21:05.273Z,4.91
2023-02-18T03:23:53.277Z,4.75
2023-02-18T03:26:43.263Z,4.71
2023-02-18T03:29:26.268Z,4.62
2023-02-18T03:32:23.290Z,4.68
2023-02-18T03:35:19.267Z,4.74
2023-02-18T03:38:07.261Z,4.79
2023-02-18T03:40:54.277Z,4.80
2023-02-18T03:43:27.383Z,4.84
2023-02-18T03:46:14.300Z,4.88
2023-02-18T03:48:47.382Z,4.77
2023-02-18T03:51:34.302Z,4.67
2023-02-18T03:54:07.410Z,4.72
2023-02-18T03:56:54.320Z,4.85
2023-02-18T03:59:34.284Z,4.77
2023-02-18T04:02:28.282Z,4.67
2023-02-18T04:05:22.275Z,4.60
2023-02-18T04:08:16.253Z,4.57
2023-02-18T04:11:03.323Z,4.55
2023-02-18T04:13:36.362Z,4.50
2023-02-18T04:16:23.373Z,4.45
2023-02-18T04:18:56.370Z,4.44
2023-02-18T04:21:43.264Z,4.39
2023-02-18T04:24:16.393Z,4.38
2023-02-18T04:27:03.268Z,4.35
2023-02-18T04:29:36.392Z,4.40
2023-02-18T04:32:23.303Z,4.39
2023-02-18T04:35:03.273Z,4.37
2023-02-18T04:37:57.287Z,4.39
2023-02-18T04:40:44.273Z,4.42
2023-02-18T04:43:17.379Z,4.46
2023-02-18T04:46:04.325Z,4.55
2023-02-18T04:48:37.426Z,4.57
2023-02-18T04:51:24.290Z,4.56
2023-02-18T04:53:57.376Z,4.53
2023-02-18T04:56:44.297Z,4.54
2023-02-18T04:59:18.391Z,4.70
2023-02-18T05:02:05.320Z,4.77
2023-02-18T05:04:38.399Z,4.72
2023-02-18T05:07:25.287Z,4.66
2023-02-18T05:09:58.430Z,4.67
2023-02-18T05:12:45.296Z,4.73
2023-02-18T05:15:25.317Z,4.68
2023-02-18T05:18:12.293Z,4.67
2023-02-18T05:20:45.393Z,4.56
2023-02-18T05:23:32.317Z,4.52
2023-02-18T05:26:05.403Z,4.53
2023-02-18T05:28:52.333Z,4.53
2023-02-18T05:31:32.405Z,4.49
2023-02-18T05:34:19.321Z,4.43
2023-02-18T05:36:59.304Z,4.39
2023-02-18T05:39:47.295Z,4.44
2023-02-18T05:42:27.319Z,4.41
2023-02-18T05:45:21.261Z,4.66
2023-02-18T05:48:08.334Z,4.71
2023-02-18T05:50:41.682Z,4.75
2023-02-18T05:53:28.328Z,4.65
2023-02-18T05:56:01.421Z,4.55
2023-02-18T05:58:48.328Z,4.47
2023-02-18T06:01:28.345Z,4.44
2023-02-18T06:04:22.315Z,4.44
2023-02-18T06:07:16.373Z,4.40
2023-02-18T06:10:10.316Z,4.48
2023-02-18T06:12:57.341Z,4.44
2023-02-18T06:15:30.477Z,4.42
2023-02-18T06:18:17.309Z,4.37
2023-02-18T06:20:50.435Z,4.31
2023-02-18T06:23:37.332Z,4.33
2023-02-18T06:26:10.655Z,4.41
2023-02-18T06:28:57.336Z,4.42
2023-02-18T06:31:37.397Z,4.52
2023-02-18T06:34:31.327Z,4.58
2023-02-18T06:37:18.337Z,4.67
2023-02-18T06:39:51.451Z,4.78
2023-02-18T06:42:38.327Z,4.76
2023-02-18T06:45:11.560Z,4.84
2023-02-18T06:47:58.335Z,4.86
2023-02-18T06:50:31.425Z,4.82
2023-02-18T06:53:19.347Z,4.86
2023-02-18T06:55:59.330Z,4.84
2023-02-18T06:58:46.343Z,4.76
2023-02-18T07:01:26.345Z,4.74
2023-02-18T07:04:13.335Z,4.67
2023-02-18T07:06:53.346Z,4.71
2023-02-18T07:09:40.329Z,4.79
2023-02-18T07:12:20.360Z,4.96
2023-02-18T07:15:14.340Z,5.02
2023-02-18T07:18:01.369Z,5.08
2023-02-18T07:20:37.438Z,5.11
2023-02-18T07:23:24.336Z,5.08
2023-02-18T07:25:57.443Z,5.10
2023-02-18T07:28:44.346Z,5.17
2023-02-18T07:31:18.319Z,5.26
2023-02-18T07:34:05.351Z,5.41
2023-02-18T07:36:38.560Z,5.49
2023-02-18T07:39:27.366Z,5.49
2023-02-18T07:42:03.531Z,5.52
2023-02-18T07:44:50.381Z,5.59
2023-02-18T07:47:24.499Z,5.65
2023-02-18T07:50:12.381Z,5.59
2023-02-18T07:52:45.536Z,5.54
2023-02-18T07:55:52.341Z,5.54
2023-02-18T07:58:32.360Z,5.57
2023-02-18T08:01:28.361Z,5.69
2023-02-18T08:04:15.440Z,5.71
2023-02-18T08:06:51.626Z,5.69
2023-02-18T08:09:38.357Z,5.76
2023-02-18T08:12:11.556Z,5.85
2023-02-18T08:14:58.369Z,5.98
2023-02-18T08:17:31.471Z,6.09
2023-02-18T08:20:18.422Z,6.17
2023-02-18T08:22:51.458Z,6.17
2023-02-18T08:25:39.386Z,6.13
2023-02-18T08:28:15.450Z,6.08
2023-02-18T08:31:02.478Z,6.12
2023-02-18T08:33:43.386Z,6.18
2023-02-18T08:36:30.390Z,6.23
2023-02-18T08:39:04.551Z,6.25
2023-02-18T08:41:52.391Z,6.25
2023-02-18T08:44:25.487Z,6.31
2023-02-18T08:48:17.401Z,6.40
2023-02-18T08:50:05.516Z,6.41
2023-02-18T08:52:52.390Z,6.43
2023-02-18T08:55:26.952Z,6.48
2023-02-18T08:58:13.408Z,6.54
2023-02-18T09:00:47.539Z,6.57
2023-02-18T09:03:41.428Z,6.67
2023-02-18T09:06:35.397Z,6.70
2023-02-18T09:09:24.413Z,6.59
2023-02-18T09:12:04.392Z,6.66
2023-02-18T09:15:01.400Z,6.72
2023-02-18T09:17:55.401Z,6.88
2023-02-18T09:20:42.395Z,7.02
2023-02-18T09:23:16.396Z,6.96
2023-02-18T09:26:04.389Z,6.92
2023-02-18T09:28:37.540Z,7.06
2023-02-18T09:31:27.559Z,7.30
2023-02-18T09:34:06.540Z,7.56
2023-02-18T09:36:53.402Z,7.81
2023-02-18T09:39:26.835Z,7.94
2023-02-18T09:42:26.404Z,7.69
2023-02-18T09:45:11.395Z,7.52
2023-02-18T09:47:58.417Z,7.42
2023-02-18T09:50:47.411Z,7.28
2023-02-18T09:53:34.392Z,7.23
2023-02-18T09:56:08.535Z,7.19
2023-02-18T09:58:56.395Z,7.15
2023-02-18T10:01:42.599Z,7.23
2023-02-18T10:04:43.417Z,7.21
2023-02-18T10:07:48.418Z,7.21
2023-02-18T10:10:46.413Z,7.29
2023-02-18T10:13:27.533Z,7.45
2023-02-18T10:16:15.490Z,7.40
2023-02-18T10:18:51.634Z,7.40
2023-02-18T10:21:42.440Z,7.45
2023-02-18T10:24:24.519Z,7.57
2023-02-18T10:27:13.445Z,7.64
2023-02-18T10:29:46.548Z,7.72
2023-02-18T10:32:46.487Z,7.80
2023-02-18T10:35:36.432Z,7.89
2023-02-18T10:38:55.424Z,8.02
2023-02-18T10:41:55.431Z,7.99
2023-02-18T10:44:57.444Z,8.02
2023-02-18T10:48:01.569Z,7.99
2023-02-18T10:50:50.430Z,7.98
2023-02-18T10:53:41.845Z,7.84
2023-02-18T10:56:48.145Z,7.85
2023-02-18T10:59:30.540Z,7.87
2023-02-18T11:02:24.432Z,7.86
2023-02-18T11:04:57.746Z,7.93
2023-02-18T11:07:45.452Z,7.90
2023-02-18T11:10:29.525Z,7.93
2023-02-18T11:13:19.460Z,7.93
2023-02-18T11:16:12.591Z,7.97
2023-02-18T11:18:59.452Z,7.95
2023-02-18T11:21:49.456Z,7.93
2023-02-18T11:24:36.439Z,7.85
2023-02-18T11:27:15.533Z,7.85
2023-02-18T11:30:12.563Z,7.80
2023-02-18T11:32:45.562Z,7.73
2023-02-18T11:35:35.467Z,7.68
2023-02-18T11:38:12.567Z,7.72
2023-02-18T11:41:18.456Z,7.74
2023-02-18T11:44:04.449Z,7.72
2023-02-18T11:47:15.456Z,7.66
2023-02-18T11:50:31.450Z,7.70
2023-02-18T11:53:45.465Z,7.65
2023-02-18T11:56:35.452Z,7.72
2023-02-18T11:59:11.563Z,7.76
2023-02-18T12:02:24.470Z,7.77
2023-02-18T12:05:20.696Z,7.71
2023-02-18T12:08:14.467Z,7.70
2023-02-18T12:11:00.482Z,7.66
2023-02-18T12:14:09.466Z,7.56
2023-02-18T12:17:15.454Z,7.45
2023-02-18T12:20:09.480Z,7.39
2023-02-18T12:22:51.553Z,7.31
2023-02-18T12:25:41.489Z,7.30
2023-02-18T12:29:04.475Z,7.28
2023-02-18T12:32:07.531Z,7.31
2023-02-18T12:35:06.476Z,7.28
2023-02-18T12:38:02.603Z,7.24
2023-02-18T12:41:59.492Z,7.20
2023-02-18T12:44:51.487Z,7.11
2023-02-18T12:48:05.495Z,7.06
2023-02-18T12:51:12.497Z,7.04
2023-02-18T12:54:07.497Z,7.02
2023-02-18T12:56:57.499Z,7.03
2023-02-18T13:00:22.504Z,7.03
2023-02-18T13:03:53.518Z,6.97
2023-02-18T13:07:12.493Z,6.97
2023-02-18T13:10:35.525Z,6.98
2023-02-18T13:13:32.503Z,7.02
2023-02-18T13:16:18.576Z,7.01
2023-02-18T13:19:40.497Z,7.00
2023-02-18T13:22:30.536Z,7.02
2023-02-18T13:25:06.592Z,7.03
2023-02-18T13:28:17.517Z,6.99
2023-02-18T13:31:27.769Z,6.90
2023-02-18T13:34:46.487Z,6.90
2023-02-18T13:37:49.522Z,6.88
2023-02-18T13:40:37.505Z,6.88
2023-02-18T13:43:34.500Z,6.83
2023-02-18T13:46:26.506Z,6.86
2023-02-18T13:49:10.674Z,6.85
2023-02-18T13:52:00.514Z,6.83
2023-02-18T13:54:40.611Z,6.86
2023-02-18T13:57:32.509Z,6.89
2023-02-18T14:00:17.532Z,6.85
2023-02-18T14:03:08.631Z,6.84
2023-02-18T14:05:55.519Z,6.82
2023-02-18T14:08:43.518Z,6.82
2023-02-18T14:11:19.620Z,6.80
2023-02-18T14:14:06.525Z,6.81
2023-02-18T14:17:27.528Z,6.75
2023-02-18T14:20:21.520Z,6.72
2023-02-18T14:23:15.525Z,6.71
2023-02-18T14:26:19.528Z,6.68
2023-02-18T14:29:21.530Z,6.67
2023-02-18T14:32:01.883Z,6.69
2023-02-18T14:35:09.566Z,6.64
2023-02-18T14:38:18.553Z,6.63
2023-02-18T14:41:21.545Z,6.60
2023-02-18T14:44:56.529Z,6.56
2023-02-18T14:47:35.707Z,6.50
2023-02-18T14:50:26.533Z,6.42
2023-02-18T14:53:10.524Z,6.38
2023-02-18T14:56:06.543Z,6.29
2023-02-18T14:59:08.534Z,6.23
2023-02-18T15:02:02.543Z,6.16
2023-02-18T15:04:57.552Z,6.16
2023-02-18T15:07:44.579Z,6.21
2023-02-18T15:10:28.536Z,6.20
2023-02-18T15:13:30.601Z,6.13
2023-02-18T15:16:29.591Z,6.17
2023-02-18T15:19:16.546Z,6.14
2023-02-18T15:22:11.553Z,6.16
2023-02-18T15:25:01.563Z,6.15
2023-02-18T15:27:44.562Z,6.14
2023-02-18T15:30:45.544Z,6.09
2023-02-18T15:33:34.559Z,6.04
2023-02-18T15:36:20.554Z,5.98
2023-02-18T15:39:14.526Z,6.03
2023-02-18T15:42:09.557Z,6.04
2023-02-18T15:44:50.546Z,5.98
2023-02-18T15:47:38.559Z,5.92
2023-02-18T15:50:19.551Z,5.91
2023-02-18T15:53:20.582Z,5.92
2023-02-18T15:56:24.556Z,5.85
2023-02-18T15:59:03.703Z,5.84
2023-02-18T16:01:55.716Z,5.76
2023-02-18T16:04:31.698Z,5.71
2023-02-18T16:07:37.578Z,5.72
2023-02-18T16:10:23.574Z,5.68
2023-02-18T16:13:12.574Z,5.69
2023-02-18T16:15:54.587Z,5.68
2023-02-18T16:18:55.588Z,5.61
2023-02-18T16:21:44.574Z,5.55
2023-02-18T16:24:57.571Z,5.50
2023-02-18T16:28:19.571Z,5.45
2023-02-18T16:31:06.580Z,5.42
2023-02-18T16:33:39.753Z,5.36
2023-02-18T16:36:29.568Z,5.33
2023-02-18T16:39:04.548Z,5.29
2023-02-18T16:41:51.593Z,5.30
2023-02-18T16:44:24.773Z,5.26
2023-02-18T16:47:12.584Z,5.28
2023-02-18T16:49:47.712Z,5.30
2023-02-18T16:52:37.600Z,5.31
2023-02-18T16:55:30.583Z,5.27
2023-02-18T16:58:24.601Z,5.29
2023-02-18T17:01:11.638Z,5.30
2023-02-18T17:03:45.269Z,5.30
2023-02-18T17:06:32.586Z,5.25
2023-02-18T17:09:06.683Z,5.19
2023-02-18T17:11:55.602Z,5.17
2023-02-18T17:14:29.701Z,5.12
2023-02-18T17:17:20.615Z,5.07
2023-02-18T17:19:56.650Z,5.01
2023-02-18T17:22:43.601Z,4.98
2023-02-18T17:25:21.036Z,4.94
2023-02-18T17:28:07.579Z,4.86
2023-02-18T17:30:48.787Z,4.84
2023-02-18T17:33:35.610Z,4.77
2023-02-18T17:36:09.031Z,4.71
2023-02-18T17:38:55.609Z,4.65
2023-02-18T17:41:28.713Z,4.63
2023-02-18T17:44:28.613Z,4.63
2023-02-18T17:47:01.787Z,4.60
2023-02-18T17:49:49.742Z,4.56
2023-02-18T17:52:36.302Z,4.53
2023-02-18T17:55:26.631Z,4.50
2023-02-18T17:58:00.777Z,4.48
2023-02-18T18:00:54.637Z,4.47
2023-02-18T18:03:35.623Z,4.48
2023-02-18T18:06:31.594Z,4.51
2023-02-18T18:09:21.622Z,4.58
2023-02-18T18:12:01.617Z,4.65
2023-02-18T18:14:55.566Z,4.78
2023-02-18T18:17:42.626Z,4.81
2023-02-18T18:20:17.864Z,4.81
2023-02-18T18:23:05.632Z,4.84
2023-02-18T18:26:11.768Z,4.86
2023-02-18T18:28:59.644Z,4.83
2023-02-18T18:31:39.683Z,4.91
2023-02-18T18:34:36.694Z,5.04
2023-02-18T18:37:30.629Z,5.05
2023-02-18T18:40:17.640Z,5.15
2023-02-18T18:42:57.682Z,5.15
2023-02-18T18:45:51.674Z,5.15
2023-02-18T18:48:38.717Z,5.14
2023-02-18T18:51:15.918Z,5.14
2023-02-18T18:54:02.628Z,5.17
2023-02-18T18:56:37.865Z,5.22
2023-02-18T18:59:24.639Z,5.23
2023-02-18T19:01:58.780Z,5.27
2023-02-18T19:04:52.638Z,5.28
2023-02-18T19:07:46.697Z,5.21
2023-02-18T19:10:35.667Z,5.21
2023-02-18T19:13:15.817Z,5.19
2023-02-18T19:16:16.018Z,5.20
2023-02-18T19:18:55.653Z,5.16
2023-02-18T19:21:49.649Z,5.11
2023-02-18T19:24:36.634Z,5.12
2023-02-18T19:27:16.696Z,5.08
2023-02-18T19:30:10.716Z,5.03
2023-02-18T19:33:06.696Z,4.99
2023-02-18T19:36:00.692Z,4.92
2023-02-18T19:38:47.675Z,4.92
2023-02-18T19:41:29.668Z,4.97
2023-02-18T19:44:16.701Z,4.99
2023-02-18T19:46:56.698Z,5.03
2023-02-18T19:49:50.696Z,4.98
2023-02-18T19:52:37.647Z,4.98
2023-02-18T19:55:18.702Z,4.97
2023-02-18T19:58:05.675Z,5.02
2023-02-18T20:00:40.501Z,5.02
2023-02-18T20:03:27.668Z,4.98
2023-02-18T20:06:02.627Z,4.96
2023-02-18T20:08:49.719Z,4.95
2023-02-18T20:11:29.687Z,4.93
2023-02-18T20:14:23.723Z,4.91
2023-02-18T20:17:12.701Z,4.93
2023-02-18T20:19:45.852Z,4.99
2023-02-18T20:22:32.694Z,4.94
2023-02-18T20:25:13.668Z,4.96
2023-02-18T20:28:07.760Z,5.01
2023-02-18T20:30:54.805Z,5.08
2023-02-18T20:33:34.697Z,5.09
2023-02-18T20:36:28.695Z,5.09
2023-02-18T20:39:24.698Z,5.10
2023-02-18T20:42:16.568Z,5.06
2023-02-18T20:44:51.852Z,5.03
2023-02-18T20:47:39.728Z,4.99
2023-02-18T20:50:20.700Z,5.02
2023-02-18T20:53:14.951Z,4.97
2023-02-18T20:56:01.738Z,4.94
2023-02-18T20:58:34.856Z,5.03
2023-02-18T21:01:23.748Z,5.04
2023-02-18T21:03:56.804Z,4.99
2023-02-18T21:06:51.827Z,5.00
2023-02-18T21:09:45.723Z,4.96
2023-02-18T21:12:39.788Z,4.93
2023-02-18T21:15:34.699Z,4.90
2023-02-18T21:18:22.704Z,4.85
2023-02-18T21:20:55.818Z,4.85
2023-02-18T21:23:43.729Z,4.85
2023-02-18T21:26:20.906Z,4.87
2023-02-18T21:29:11.714Z,4.82
2023-02-18T21:31:47.926Z,4.82
2023-02-18T21:34:34.704Z,4.80
2023-02-18T21:37:08.993Z,4.86
2023-02-18T21:39:55.716Z,4.85
2023-02-18T21:42:28.833Z,4.87
2023-02-18T21:45:15.725Z,4.90
2023-02-18T21:47:50.837Z,4.89
2023-02-18T21:50:37.716Z,4.85
2023-02-18T21:53:10.984Z,4.89
2023-02-18T21:56:03.644Z,4.94
2023-02-18T21:58:36.850Z,4.98
2023-02-18T22:01:23.731Z,4.98
2023-02-18T22:04:03.772Z,4.92
2023-02-18T22:06:58.699Z,4.89
2023-02-18T22:09:48.270Z,4.85
2023-02-18T22:12:22.836Z,4.88
2023-02-18T22:15:10.702Z,4.94
2023-02-18T22:17:43.823Z,4.88
2023-02-18T22:20:30.717Z,4.91
2023-02-18T22:23:10.730Z,4.90
2023-02-18T22:25:58.721Z,4.87
2023-02-18T22:28:38.715Z,4.87
2023-02-18T22:31:28.515Z,4.82
2023-02-18T22:34:09.732Z,4.77
2023-02-18T22:37:03.781Z,4.75
2023-02-18T22:39:50.711Z,4.77
2023-02-18T22:42:23.837Z,4.84
2023-02-18T22:45:10.723Z,4.87
2023-02-18T22:47:50.742Z,4.89
2023-02-18T22:50:37.795Z,4.88
2023-02-18T22:53:10.833Z,4.85
2023-02-18T22:55:57.769Z,4.82
2023-02-18T22:58:30.867Z,4.76
2023-02-18T23:01:30.393Z,4.72
2023-02-18T23:04:06.009Z,4.68
2023-02-18T23:06:54.543Z,4.64
2023-02-18T23:09:31.861Z,4.65
2023-02-18T23:12:18.718Z,4.67
2023-02-18T23:14:51.918Z,4.70
2023-02-18T23:17:38.846Z,4.70
2023-02-18T23:20:19.801Z,4.70
2023-02-18T23:23:13.786Z,4.66
2023-02-18T23:26:07.846Z,4.66
2023-02-18T23:28:56.816Z,4.59
2023-02-18T23:31:39.839Z,4.60
2023-02-18T23:34:26.742Z,4.59
2023-02-18T23:36:59.913Z,4.57
2023-02-18T23:39:46.732Z,4.48
2023-02-18T23:42:19.896Z,4.49
2023-02-18T23:45:08.622Z,4.45
2023-02-18T23:47:48.809Z,4.43
2023-02-18T23:50:42.734Z,4.37
2023-02-18T23:53:33.892Z,4.37
2023-02-18T23:56:43.860Z,4.38
2023-02-18T23:59:37.812Z,4.35
